Capitol Logistics 11




VHHH
Chek Lap Kok International
Hong Kong, HK
PANC
Ted Stevens Anchorage International Airport
Anchorage, US

Activity Log

Date Flight Route Aircraft Duration
04/29/2021 CPX11 OCEAN V3 ENVAR M750 MEXIR M750 BUNGU Y81 SYOYU Y809 SPEAR Y808 PEXEL A590 POWAL A590 PINSO A590 HAMND NEELL6 B744 9h 09m
03/19/2021 CPX11 OCEAN V3 ENVAR M750 MEXIR M750 BUNGU Y81 SYOYU Y809 SPEAR Y808 PEXEL A590 POWAL A590 PINSO A590 HAMND NEELL6 B744 10h 13m
10/20/2019 CPX11 OCEAN V3 ENVAR M750 MEXIR M750 BUNGU Y81 SYOYU Y809 SPEAR Y808 PEXEL A590 POWAL A590 PINSO A590 HAMND NEELL6 B744 10h 07m
10/04/2019 CPX11 OCEAN V3 ENVAR M750 MEXIR M750 BUNGU Y81 SYOYU Y809 SPEAR Y808 PEXEL A590 POWAL A590 PINSO A590 HAMND NEELL6 B744 11h 41m
09/07/2019 CPX11 OCEAN V3 ENVAR M750 MEXIR M750 BUNGU Y81 SYOYU Y809 SPEAR Y808 PEXEL A590 POWAL A590 PINSO A590 HAMND NEELL6 B744 9h 14m
09/05/2019 CPX11 OCEAN V3 ENVAR M750 MEXIR M750 BUNGU Y81 SYOYU Y809 SPEAR Y808 PEXEL A590 POWAL A590 PINSO A590 HAMND NEELL6 B744 9h 49m
07/02/2019 CPX11 OCEAN V3 ENVAR M750 MEXIR M750 BUNGU Y81 SYOYU Y809 SPEAR Y808 PEXEL A590 POWAL A590 PINSO A590 HAMND NEELL6 B744 8h 55m
06/09/2019 CPX11 OCEAN V3 ENVAR M750 MEXIR M750 BUNGU Y81 SYOYU Y809 SPEAR Y808 PEXEL A590 POWAL A590 PINSO A590 HAMND NEELL6 B744 9h 40m
06/07/2019 CPX11 OCEAN V3 ENVAR M750 MEXIR M750 BUNGU Y81 SYOYU Y809 SPEAR Y808 PEXEL A590 POWAL A590 PINSO A590 HAMND NEELL6 B744 9h 40m
04/14/2019 CPX11 OCEAN V3 ENVAR M750 MEXIR M750 BUNGU Y81 SYOYU Y809 SPEAR Y808 PEXEL A590 POWAL A590 PINSO A590 HAMND NEELL6 B744 9h 27m
02/06/2019 CPX11 OCEA2D OCEAN V2 ELATO A1 KADLO L1 SALMI MIKES OTR30 FUE V28 DGC Y14 SAMON Z17 MRE V13 CHE Y116 ASIBE V7 AWE V8 LUBEK Y116 MVE G583 MARCC NOSHO SQA J179 AKGAS NEELL6 MD11 10h 24m

Route Details

Aircraft Information
Primary: Boeing 747-400BCF
Backup: Not Available
Route Data
Distance: 4414nm
Duration: 9h 00m
Recm'd Route: OCEAN V3 ENVAR M750 MEXIR M750 BUNGU Y81 SYOYU Y809 SPEAR Y808 PEXEL A590 POWAL A590 PINSO A590 HAMND NEELL6
Origin Wx: VHHH 020700Z 26006KT 230V310 9999 FEW025 33/26 Q0996 NOSIG
Dest. Wx: PANC 020653Z 00000KT 10SM FEW180 17/12 A3010 RMK AO2 SLP192 T01720122
Notes: